sensor_id;sensor_type;location;lat;lon;timestamp;temperature;humidity
59556;DHT22;45374;52.746;6.304;2024-03-22T00:00:19;9.30;99.90
59556;DHT22;45374;52.746;6.304;2024-03-22T00:02:45;9.30;99.90
59556;DHT22;45374;52.746;6.304;2024-03-22T00:05:10;9.40;99.90
59556;DHT22;45374;52.746;6.304;2024-03-22T00:07:36;9.40;99.90
59556;DHT22;45374;52.746;6.304;2024-03-22T00:10:04;9.40;99.90
59556;DHT22;45374;52.746;6.304;2024-03-22T00:12:30;9.40;99.90
59556;DHT22;45374;52.746;6.304;2024-03-22T00:14:56;9.40;99.90
59556;DHT22;45374;52.746;6.304;2024-03-22T00:17:21;9.40;99.90
59556;DHT22;45374;52.746;6.304;2024-03-22T00:19:47;9.40;99.90
59556;DHT22;45374;52.746;6.304;2024-03-22T00:22:13;9.50;99.90
59556;DHT22;45374;52.746;6.304;2024-03-22T00:24:38;9.50;99.90
59556;DHT22;45374;52.746;6.304;2024-03-22T00:27:04;9.60;99.90
59556;DHT22;45374;52.746;6.304;2024-03-22T00:29:29;9.60;99.90
59556;DHT22;45374;52.746;6.304;2024-03-22T00:31:55;9.60;99.90
59556;DHT22;45374;52.746;6.304;2024-03-22T00:34:21;9.70;99.90
59556;DHT22;45374;52.746;6.304;2024-03-22T00:36:46;9.70;99.90
59556;DHT22;45374;52.746;6.304;2024-03-22T00:39:12;9.70;99.90
59556;DHT22;45374;52.746;6.304;2024-03-22T00:41:38;9.80;99.90
59556;DHT22;45374;52.746;6.304;2024-03-22T00:44:03;9.80;99.90
59556;DHT22;45374;52.746;6.304;2024-03-22T00:46:29;9.80;99.90
59556;DHT22;45374;52.746;6.304;2024-03-22T00:48:55;9.90;99.90
59556;DHT22;45374;52.746;6.304;2024-03-22T00:51:20;9.90;99.90
59556;DHT22;45374;52.746;6.304;2024-03-22T00:53:46;9.90;99.90
59556;DHT22;45374;52.746;6.304;2024-03-22T00:56:11;10.00;99.90
59556;DHT22;45374;52.746;6.304;2024-03-22T00:58:37;10.00;99.90
59556;DHT22;45374;52.746;6.304;2024-03-22T01:01:02;10.00;99.90
59556;DHT22;45374;52.746;6.304;2024-03-22T01:03:28;10.00;99.90
59556;DHT22;45374;52.746;6.304;2024-03-22T01:05:54;10.10;99.90
59556;DHT22;45374;52.746;6.304;2024-03-22T01:08:19;10.10;99.90
59556;DHT22;45374;52.746;6.304;2024-03-22T01:10:45;10.10;99.90
59556;DHT22;45374;52.746;6.304;2024-03-22T01:13:10;10.20;99.90
59556;DHT22;45374;52.746;6.304;2024-03-22T01:15:36;10.20;99.90
59556;DHT22;45374;52.746;6.304;2024-03-22T01:18:01;10.20;99.90
59556;DHT22;45374;52.746;6.304;2024-03-22T01:20:27;10.30;99.90
59556;DHT22;45374;52.746;6.304;2024-03-22T01:22:52;10.30;99.90
59556;DHT22;45374;52.746;6.304;2024-03-22T01:25:18;10.30;99.90
59556;DHT22;45374;52.746;6.304;2024-03-22T01:27:44;10.30;99.90
59556;DHT22;45374;52.746;6.304;2024-03-22T01:30:09;10.30;99.90
59556;DHT22;45374;52.746;6.304;2024-03-22T01:32:36;10.30;99.90
59556;DHT22;45374;52.746;6.304;2024-03-22T01:35:02;10.30;99.90
59556;DHT22;45374;52.746;6.304;2024-03-22T01:37:27;10.40;99.90
59556;DHT22;45374;52.746;6.304;2024-03-22T01:39:53;10.40;99.90
59556;DHT22;45374;52.746;6.304;2024-03-22T01:42:18;10.40;99.90
59556;DHT22;45374;52.746;6.304;2024-03-22T01:44:44;10.40;99.90
59556;DHT22;45374;52.746;6.304;2024-03-22T01:47:10;10.40;99.90
59556;DHT22;45374;52.746;6.304;2024-03-22T01:49:36;10.40;99.90
59556;DHT22;45374;52.746;6.304;2024-03-22T01:52:02;10.40;99.90
59556;DHT22;45374;52.746;6.304;2024-03-22T01:54:28;10.50;99.90
59556;DHT22;45374;52.746;6.304;2024-03-22T01:56:55;10.50;99.90
59556;DHT22;45374;52.746;6.304;2024-03-22T01:59:21;10.50;99.90
59556;DHT22;45374;52.746;6.304;2024-03-22T02:01:47;10.50;99.90
59556;DHT22;45374;52.746;6.304;2024-03-22T02:04:14;10.50;99.90
59556;DHT22;45374;52.746;6.304;2024-03-22T02:06:40;10.50;99.90
59556;DHT22;45374;52.746;6.304;2024-03-22T02:09:05;10.50;99.90
59556;DHT22;45374;52.746;6.304;2024-03-22T02:11:31;10.60;99.90
59556;DHT22;45374;52.746;6.304;2024-03-22T02:13:57;10.60;99.90
59556;DHT22;45374;52.746;6.304;2024-03-22T02:16:23;10.60;99.90
59556;DHT22;45374;52.746;6.304;2024-03-22T02:18:48;10.60;99.90
59556;DHT22;45374;52.746;6.304;2024-03-22T02:21:14;10.60;99.90
59556;DHT22;45374;52.746;6.304;2024-03-22T02:23:40;10.60;99.90
59556;DHT22;45374;52.746;6.304;2024-03-22T02:26:07;10.60;99.90
59556;DHT22;45374;52.746;6.304;2024-03-22T02:28:35;10.60;99.90
59556;DHT22;45374;52.746;6.304;2024-03-22T02:31:02;10.60;99.90
59556;DHT22;45374;52.746;6.304;2024-03-22T02:33:27;10.60;99.90
59556;DHT22;45374;52.746;6.304;2024-03-22T02:35:53;10.60;99.90
59556;DHT22;45374;52.746;6.304;2024-03-22T02:38:19;10.60;99.90
59556;DHT22;45374;52.746;6.304;2024-03-22T02:40:46;10.70;99.90
59556;DHT22;45374;52.746;6.304;2024-03-22T02:43:12;10.70;99.90
59556;DHT22;45374;52.746;6.304;2024-03-22T02:45:38;10.70;99.90
59556;DHT22;45374;52.746;6.304;2024-03-22T02:48:04;10.70;99.90
59556;DHT22;45374;52.746;6.304;2024-03-22T02:50:36;10.70;99.90
59556;DHT22;45374;52.746;6.304;2024-03-22T02:53:03;10.70;99.90
59556;DHT22;45374;52.746;6.304;2024-03-22T02:55:29;10.70;99.90
59556;DHT22;45374;52.746;6.304;2024-03-22T02:57:56;10.70;99.90
59556;DHT22;45374;52.746;6.304;2024-03-22T03:00:22;10.70;99.90
59556;DHT22;45374;52.746;6.304;2024-03-22T03:02:48;10.70;99.90
59556;DHT22;45374;52.746;6.304;2024-03-22T03:05:14;10.70;99.90
59556;DHT22;45374;52.746;6.304;2024-03-22T03:07:39;10.60;99.90
59556;DHT22;45374;52.746;6.304;2024-03-22T03:10:06;10.60;99.90
59556;DHT22;45374;52.746;6.304;2024-03-22T03:12:32;10.60;99.90
59556;DHT22;45374;52.746;6.304;2024-03-22T03:14:57;10.60;99.90
59556;DHT22;45374;52.746;6.304;2024-03-22T03:17:23;10.60;99.90
59556;DHT22;45374;52.746;6.304;2024-03-22T03:19:49;10.60;99.90
59556;DHT22;45374;52.746;6.304;2024-03-22T03:22:14;10.60;99.90
59556;DHT22;45374;52.746;6.304;2024-03-22T03:24:40;10.60;99.90
59556;DHT22;45374;52.746;6.304;2024-03-22T03:27:06;10.50;99.90
59556;DHT22;45374;52.746;6.304;2024-03-22T03:29:31;10.50;99.90
59556;DHT22;45374;52.746;6.304;2024-03-22T03:31:57;10.50;99.90
59556;DHT22;45374;52.746;6.304;2024-03-22T03:34:22;10.50;99.90
59556;DHT22;45374;52.746;6.304;2024-03-22T03:36:48;10.50;99.90
59556;DHT22;45374;52.746;6.304;2024-03-22T03:39:14;10.50;99.90
59556;DHT22;45374;52.746;6.304;2024-03-22T03:41:39;10.50;99.90
59556;DHT22;45374;52.746;6.304;2024-03-22T03:44:05;10.50;99.90
59556;DHT22;45374;52.746;6.304;2024-03-22T03:46:31;10.40;99.90
59556;DHT22;45374;52.746;6.304;2024-03-22T03:48:56;10.40;99.90
59556;DHT22;45374;52.746;6.304;2024-03-22T03:51:22;10.40;99.90
59556;DHT22;45374;52.746;6.304;2024-03-22T03:53:47;10.40;99.90
59556;DHT22;45374;52.746;6.304;2024-03-22T03:56:13;10.40;99.90
59556;DHT22;45374;52.746;6.304;2024-03-22T03:58:39;10.30;99.90
59556;DHT22;45374;52.746;6.304;2024-03-22T04:01:08;10.30;99.90
59556;DHT22;45374;52.746;6.304;2024-03-22T04:03:34;10.30;99.90
59556;DHT22;45374;52.746;6.304;2024-03-22T04:06:00;10.40;99.90
59556;DHT22;45374;52.746;6.304;2024-03-22T04:08:26;10.30;99.90
59556;DHT22;45374;52.746;6.304;2024-03-22T04:10:53;10.40;99.90
59556;DHT22;45374;52.746;6.304;2024-03-22T04:13:18;10.30;99.90
59556;DHT22;45374;52.746;6.304;2024-03-22T04:15:44;10.40;99.90
59556;DHT22;45374;52.746;6.304;2024-03-22T04:18:10;10.40;99.90
59556;DHT22;45374;52.746;6.304;2024-03-22T04:20:35;10.50;99.90
59556;DHT22;45374;52.746;6.304;2024-03-22T04:23:01;10.40;99.90
59556;DHT22;45374;52.746;6.304;2024-03-22T04:25:26;10.40;99.90
59556;DHT22;45374;52.746;6.304;2024-03-22T04:27:52;10.50;99.90
59556;DHT22;45374;52.746;6.304;2024-03-22T04:30:17;10.50;99.90
59556;DHT22;45374;52.746;6.304;2024-03-22T04:32:46;10.50;99.90
59556;DHT22;45374;52.746;6.304;2024-03-22T04:35:11;10.50;99.90
59556;DHT22;45374;52.746;6.304;2024-03-22T04:37:37;10.50;99.90
59556;DHT22;45374;52.746;6.304;2024-03-22T04:40:03;10.50;99.90
59556;DHT22;45374;52.746;6.304;2024-03-22T04:42:28;10.50;99.90
59556;DHT22;45374;52.746;6.304;2024-03-22T04:44:54;10.60;99.90
59556;DHT22;45374;52.746;6.304;2024-03-22T04:47:20;10.50;99.90
59556;DHT22;45374;52.746;6.304;2024-03-22T04:49:46;10.50;99.90
59556;DHT22;45374;52.746;6.304;2024-03-22T04:52:11;10.50;99.90
59556;DHT22;45374;52.746;6.304;2024-03-22T04:54:37;10.50;99.90
59556;DHT22;45374;52.746;6.304;2024-03-22T04:57:02;10.50;99.90
59556;DHT22;45374;52.746;6.304;2024-03-22T04:59:28;10.50;99.90
59556;DHT22;45374;52.746;6.304;2024-03-22T05:01:54;10.50;99.90
59556;DHT22;45374;52.746;6.304;2024-03-22T05:04:19;10.50;99.90
59556;DHT22;45374;52.746;6.304;2024-03-22T05:06:45;10.50;99.90
59556;DHT22;45374;52.746;6.304;2024-03-22T05:09:10;10.50;99.90
59556;DHT22;45374;52.746;6.304;2024-03-22T05:11:36;10.50;99.90
59556;DHT22;45374;52.746;6.304;2024-03-22T05:14:02;10.40;99.90
59556;DHT22;45374;52.746;6.304;2024-03-22T05:16:28;10.50;99.90
59556;DHT22;45374;52.746;6.304;2024-03-22T05:18:53;10.50;99.90
59556;DHT22;45374;52.746;6.304;2024-03-22T05:21:19;10.50;99.90
59556;DHT22;45374;52.746;6.304;2024-03-22T05:23:44;10.50;99.90
59556;DHT22;45374;52.746;6.304;2024-03-22T05:26:10;10.50;99.90
59556;DHT22;45374;52.746;6.304;2024-03-22T05:28:35;10.40;99.90
59556;DHT22;45374;52.746;6.304;2024-03-22T05:31:01;10.40;99.90
59556;DHT22;45374;52.746;6.304;2024-03-22T05:33:27;10.40;99.90
59556;DHT22;45374;52.746;6.304;2024-03-22T05:35:52;10.40;99.90
59556;DHT22;45374;52.746;6.304;2024-03-22T05:38:18;10.40;99.90
59556;DHT22;45374;52.746;6.304;2024-03-22T05:40:43;10.30;99.90
59556;DHT22;45374;52.746;6.304;2024-03-22T05:43:12;10.30;99.90
59556;DHT22;45374;52.746;6.304;2024-03-22T05:45:37;10.30;99.90
59556;DHT22;45374;52.746;6.304;2024-03-22T05:48:04;10.30;99.90
59556;DHT22;45374;52.746;6.304;2024-03-22T05:50:29;10.30;99.90
59556;DHT22;45374;52.746;6.304;2024-03-22T05:52:55;10.30;99.90
59556;DHT22;45374;52.746;6.304;2024-03-22T05:55:20;10.30;99.90
59556;DHT22;45374;52.746;6.304;2024-03-22T05:57:46;10.20;99.90
59556;DHT22;45374;52.746;6.304;2024-03-22T06:00:12;10.20;99.90
59556;DHT22;45374;52.746;6.304;2024-03-22T06:02:39;10.20;99.90
59556;DHT22;45374;52.746;6.304;2024-03-22T06:05:05;10.20;99.90
59556;DHT22;45374;52.746;6.304;2024-03-22T06:07:31;10.20;99.90
59556;DHT22;45374;52.746;6.304;2024-03-22T06:10:06;10.20;99.90
59556;DHT22;45374;52.746;6.304;2024-03-22T06:12:31;10.30;99.90
59556;DHT22;45374;52.746;6.304;2024-03-22T06:14:57;10.20;99.90
59556;DHT22;45374;52.746;6.304;2024-03-22T06:17:22;10.20;99.90
59556;DHT22;45374;52.746;6.304;2024-03-22T06:19:48;10.20;99.90
59556;DHT22;45374;52.746;6.304;2024-03-22T06:22:14;10.20;99.90
59556;DHT22;45374;52.746;6.304;2024-03-22T06:24:39;10.20;99.90
59556;DHT22;45374;52.746;6.304;2024-03-22T06:27:05;10.20;99.90
59556;DHT22;45374;52.746;6.304;2024-03-22T06:29:31;10.20;99.90
59556;DHT22;45374;52.746;6.304;2024-03-22T06:31:57;10.20;99.90
59556;DHT22;45374;52.746;6.304;2024-03-22T06:34:22;10.30;99.90
59556;DHT22;45374;52.746;6.304;2024-03-22T06:36:48;10.20;99.90
59556;DHT22;45374;52.746;6.304;2024-03-22T06:39:13;10.20;99.90
59556;DHT22;45374;52.746;6.304;2024-03-22T06:41:40;10.20;99.90
59556;DHT22;45374;52.746;6.304;2024-03-22T06:44:05;10.30;99.90
59556;DHT22;45374;52.746;6.304;2024-03-22T06:46:31;10.30;99.90
59556;DHT22;45374;52.746;6.304;2024-03-22T06:48:57;10.30;99.90
59556;DHT22;45374;52.746;6.304;2024-03-22T06:51:24;10.30;99.90
59556;DHT22;45374;52.746;6.304;2024-03-22T06:53:49;10.30;99.90
59556;DHT22;45374;52.746;6.304;2024-03-22T06:56:16;10.30;99.90
59556;DHT22;45374;52.746;6.304;2024-03-22T06:58:44;10.30;99.90
59556;DHT22;45374;52.746;6.304;2024-03-22T07:01:09;10.30;99.90
59556;DHT22;45374;52.746;6.304;2024-03-22T07:03:35;10.30;99.90
59556;DHT22;45374;52.746;6.304;2024-03-22T07:06:00;10.30;99.90
59556;DHT22;45374;52.746;6.304;2024-03-22T07:08:26;10.40;99.90
59556;DHT22;45374;52.746;6.304;2024-03-22T07:10:52;10.40;99.90
59556;DHT22;45374;52.746;6.304;2024-03-22T07:13:20;10.40;99.90
59556;DHT22;45374;52.746;6.304;2024-03-22T07:15:46;10.40;99.90
59556;DHT22;45374;52.746;6.304;2024-03-22T07:18:13;10.40;99.90
59556;DHT22;45374;52.746;6.304;2024-03-22T07:20:39;10.40;99.90
59556;DHT22;45374;52.746;6.304;2024-03-22T07:23:04;10.40;99.90
59556;DHT22;45374;52.746;6.304;2024-03-22T07:25:30;10.40;99.90
59556;DHT22;45374;52.746;6.304;2024-03-22T07:27:56;10.40;99.90
59556;DHT22;45374;52.746;6.304;2024-03-22T07:30:23;10.40;99.90
59556;DHT22;45374;52.746;6.304;2024-03-22T07:33:04;10.40;99.90
59556;DHT22;45374;52.746;6.304;2024-03-22T07:35:30;10.40;99.90
59556;DHT22;45374;52.746;6.304;2024-03-22T07:37:56;10.40;99.90
59556;DHT22;45374;52.746;6.304;2024-03-22T07:40:22;10.40;99.90
59556;DHT22;45374;52.746;6.304;2024-03-22T07:42:55;10.50;99.90
59556;DHT22;45374;52.746;6.304;2024-03-22T07:45:20;10.40;99.90
59556;DHT22;45374;52.746;6.304;2024-03-22T07:47:46;10.40;99.90
59556;DHT22;45374;52.746;6.304;2024-03-22T07:50:11;10.40;99.90
59556;DHT22;45374;52.746;6.304;2024-03-22T07:52:38;10.50;99.90
59556;DHT22;45374;52.746;6.304;2024-03-22T07:55:04;10.50;99.90
59556;DHT22;45374;52.746;6.304;2024-03-22T07:57:29;10.60;99.90
59556;DHT22;45374;52.746;6.304;2024-03-22T07:59:58;10.60;99.90
59556;DHT22;45374;52.746;6.304;2024-03-22T08:02:24;10.70;99.90
59556;DHT22;45374;52.746;6.304;2024-03-22T08:04:49;10.70;99.90
59556;DHT22;45374;52.746;6.304;2024-03-22T08:07:15;10.70;99.90
59556;DHT22;45374;52.746;6.304;2024-03-22T08:09:40;10.70;99.90
59556;DHT22;45374;52.746;6.304;2024-03-22T08:12:06;10.70;99.90
59556;DHT22;45374;52.746;6.304;2024-03-22T08:14:32;10.60;99.90
59556;DHT22;45374;52.746;6.304;2024-03-22T08:16:59;10.60;99.90
59556;DHT22;45374;52.746;6.304;2024-03-22T08:19:24;10.60;99.90
59556;DHT22;45374;52.746;6.304;2024-03-22T08:21:54;10.60;99.90
59556;DHT22;45374;52.746;6.304;2024-03-22T08:24:19;10.60;99.90
59556;DHT22;45374;52.746;6.304;2024-03-22T08:26:45;10.60;99.90
59556;DHT22;45374;52.746;6.304;2024-03-22T08:29:13;10.60;99.90
59556;DHT22;45374;52.746;6.304;2024-03-22T08:31:40;10.60;99.90
59556;DHT22;45374;52.746;6.304;2024-03-22T08:34:08;10.60;99.90
59556;DHT22;45374;52.746;6.304;2024-03-22T08:36:33;10.60;99.90
59556;DHT22;45374;52.746;6.304;2024-03-22T08:38:59;10.50;99.90
59556;DHT22;45374;52.746;6.304;2024-03-22T08:41:24;10.50;99.90
59556;DHT22;45374;52.746;6.304;2024-03-22T08:43:50;10.40;99.90
59556;DHT22;45374;52.746;6.304;2024-03-22T08:46:17;10.30;99.90
59556;DHT22;45374;52.746;6.304;2024-03-22T08:48:43;10.20;99.90
59556;DHT22;45374;52.746;6.304;2024-03-22T08:51:09;10.20;99.90
59556;DHT22;45374;52.746;6.304;2024-03-22T08:53:34;10.20;99.90
59556;DHT22;45374;52.746;6.304;2024-03-22T08:56:00;10.10;99.90
59556;DHT22;45374;52.746;6.304;2024-03-22T08:58:26;10.10;99.90
59556;DHT22;45374;52.746;6.304;2024-03-22T09:00:51;10.10;99.90
59556;DHT22;45374;52.746;6.304;2024-03-22T09:03:17;10.10;99.90
59556;DHT22;45374;52.746;6.304;2024-03-22T09:05:43;10.10;99.90
59556;DHT22;45374;52.746;6.304;2024-03-22T09:08:09;10.00;99.90
59556;DHT22;45374;52.746;6.304;2024-03-22T09:10:34;10.00;99.90
59556;DHT22;45374;52.746;6.304;2024-03-22T09:13:00;10.10;99.90
59556;DHT22;45374;52.746;6.304;2024-03-22T09:15:25;10.00;99.90
59556;DHT22;45374;52.746;6.304;2024-03-22T09:17:54;10.10;99.90
59556;DHT22;45374;52.746;6.304;2024-03-22T09:20:20;10.00;99.90
59556;DHT22;45374;52.746;6.304;2024-03-22T09:22:46;10.00;99.90
59556;DHT22;45374;52.746;6.304;2024-03-22T09:25:11;10.10;99.90
59556;DHT22;45374;52.746;6.304;2024-03-22T09:27:37;10.10;99.90
59556;DHT22;45374;52.746;6.304;2024-03-22T09:30:03;10.10;99.90
59556;DHT22;45374;52.746;6.304;2024-03-22T09:32:29;10.10;99.90
59556;DHT22;45374;52.746;6.304;2024-03-22T09:34:55;10.00;99.90
59556;DHT22;45374;52.746;6.304;2024-03-22T09:37:21;10.10;99.90
59556;DHT22;45374;52.746;6.304;2024-03-22T09:39:47;10.00;99.90
59556;DHT22;45374;52.746;6.304;2024-03-22T09:42:16;10.00;99.90
59556;DHT22;45374;52.746;6.304;2024-03-22T09:44:47;10.10;99.90
59556;DHT22;45374;52.746;6.304;2024-03-22T09:47:18;10.10;99.90
59556;DHT22;45374;52.746;6.304;2024-03-22T09:49:44;10.20;99.90
59556;DHT22;45374;52.746;6.304;2024-03-22T09:52:13;10.10;99.90
59556;DHT22;45374;52.746;6.304;2024-03-22T09:54:41;10.10;99.90
59556;DHT22;45374;52.746;6.304;2024-03-22T09:57:14;10.10;99.90
59556;DHT22;45374;52.746;6.304;2024-03-22T09:59:44;10.10;99.90
59556;DHT22;45374;52.746;6.304;2024-03-22T10:02:11;10.10;99.90
59556;DHT22;45374;52.746;6.304;2024-03-22T10:04:41;10.20;99.90
59556;DHT22;45374;52.746;6.304;2024-03-22T10:07:11;10.20;99.90
59556;DHT22;45374;52.746;6.304;2024-03-22T10:09:39;10.20;99.90
59556;DHT22;45374;52.746;6.304;2024-03-22T10:12:05;10.10;99.90
59556;DHT22;45374;52.746;6.304;2024-03-22T10:14:31;10.10;99.90
59556;DHT22;45374;52.746;6.304;2024-03-22T10:16:58;10.20;99.90
59556;DHT22;45374;52.746;6.304;2024-03-22T10:19:25;10.20;99.90
59556;DHT22;45374;52.746;6.304;2024-03-22T10:22:04;10.10;99.90
59556;DHT22;45374;52.746;6.304;2024-03-22T10:24:30;10.20;99.90
59556;DHT22;45374;52.746;6.304;2024-03-22T10:26:56;10.20;99.90
59556;DHT22;45374;52.746;6.304;2024-03-22T10:29:22;10.20;99.90
59556;DHT22;45374;52.746;6.304;2024-03-22T10:31:50;10.20;99.90
59556;DHT22;45374;52.746;6.304;2024-03-22T10:34:17;10.30;99.90
59556;DHT22;45374;52.746;6.304;2024-03-22T10:36:43;10.30;99.90
59556;DHT22;45374;52.746;6.304;2024-03-22T10:39:10;10.30;99.90
59556;DHT22;45374;52.746;6.304;2024-03-22T10:41:38;10.40;99.90
59556;DHT22;45374;52.746;6.304;2024-03-22T10:44:03;10.40;99.90
59556;DHT22;45374;52.746;6.304;2024-03-22T10:46:30;10.40;99.90
59556;DHT22;45374;52.746;6.304;2024-03-22T10:48:57;10.40;99.90
59556;DHT22;45374;52.746;6.304;2024-03-22T10:51:24;10.40;99.90
59556;DHT22;45374;52.746;6.304;2024-03-22T10:53:53;10.30;99.90
59556;DHT22;45374;52.746;6.304;2024-03-22T10:56:21;10.40;99.90
59556;DHT22;45374;52.746;6.304;2024-03-22T10:58:47;10.30;99.90
59556;DHT22;45374;52.746;6.304;2024-03-22T11:01:24;10.40;99.90
59556;DHT22;45374;52.746;6.304;2024-03-22T11:03:49;10.40;99.90
59556;DHT22;45374;52.746;6.304;2024-03-22T11:06:19;10.40;99.90
59556;DHT22;45374;52.746;6.304;2024-03-22T11:08:49;10.40;99.90
59556;DHT22;45374;52.746;6.304;2024-03-22T11:11:17;10.50;99.90
59556;DHT22;45374;52.746;6.304;2024-03-22T11:13:47;10.50;99.90
59556;DHT22;45374;52.746;6.304;2024-03-22T11:16:14;10.50;99.90
59556;DHT22;45374;52.746;6.304;2024-03-22T11:18:40;10.50;99.90
59556;DHT22;45374;52.746;6.304;2024-03-22T11:21:06;10.50;99.90
59556;DHT22;45374;52.746;6.304;2024-03-22T11:23:37;10.50;99.90
59556;DHT22;45374;52.746;6.304;2024-03-22T11:26:03;10.50;99.90
59556;DHT22;45374;52.746;6.304;2024-03-22T11:28:30;10.50;99.90
59556;DHT22;45374;52.746;6.304;2024-03-22T11:30:56;10.60;99.90
59556;DHT22;45374;52.746;6.304;2024-03-22T11:33:22;10.50;99.90
59556;DHT22;45374;52.746;6.304;2024-03-22T11:35:47;10.60;99.90
59556;DHT22;45374;52.746;6.304;2024-03-22T11:38:15;10.40;99.90
59556;DHT22;45374;52.746;6.304;2024-03-22T11:40:43;10.50;99.90
59556;DHT22;45374;52.746;6.304;2024-03-22T11:43:09;10.50;99.90
59556;DHT22;45374;52.746;6.304;2024-03-22T11:45:35;10.40;99.90
59556;DHT22;45374;52.746;6.304;2024-03-22T11:48:03;10.60;99.90
59556;DHT22;45374;52.746;6.304;2024-03-22T11:50:29;10.50;99.90
59556;DHT22;45374;52.746;6.304;2024-03-22T11:52:56;10.50;99.90
59556;DHT22;45374;52.746;6.304;2024-03-22T11:55:21;10.50;99.90
59556;DHT22;45374;52.746;6.304;2024-03-22T11:57:50;10.40;99.90
59556;DHT22;45374;52.746;6.304;2024-03-22T12:00:18;10.40;99.90
59556;DHT22;45374;52.746;6.304;2024-03-22T12:02:45;10.40;99.90
59556;DHT22;45374;52.746;6.304;2024-03-22T12:05:11;10.50;99.90
59556;DHT22;45374;52.746;6.304;2024-03-22T12:07:37;10.50;99.90
59556;DHT22;45374;52.746;6.304;2024-03-22T12:10:03;10.50;99.90
59556;DHT22;45374;52.746;6.304;2024-03-22T12:12:29;10.40;99.90
59556;DHT22;45374;52.746;6.304;2024-03-22T12:14:55;10.50;99.90
59556;DHT22;45374;52.746;6.304;2024-03-22T12:17:21;10.50;99.90
59556;DHT22;45374;52.746;6.304;2024-03-22T12:19:46;10.50;99.90
59556;DHT22;45374;52.746;6.304;2024-03-22T12:22:12;10.50;99.90
59556;DHT22;45374;52.746;6.304;2024-03-22T12:24:38;10.50;99.90
59556;DHT22;45374;52.746;6.304;2024-03-22T12:27:04;10.50;99.90
59556;DHT22;45374;52.746;6.304;2024-03-22T12:29:32;10.60;99.90
59556;DHT22;45374;52.746;6.304;2024-03-22T12:31:59;10.50;99.90
59556;DHT22;45374;52.746;6.304;2024-03-22T12:34:27;10.40;99.90
59556;DHT22;45374;52.746;6.304;2024-03-22T12:36:53;10.20;99.90
59556;DHT22;45374;52.746;6.304;2024-03-22T12:39:18;10.00;99.90
59556;DHT22;45374;52.746;6.304;2024-03-22T12:41:44;9.80;99.90
59556;DHT22;45374;52.746;6.304;2024-03-22T12:44:09;9.80;99.90
59556;DHT22;45374;52.746;6.304;2024-03-22T12:46:36;9.80;99.90
59556;DHT22;45374;52.746;6.304;2024-03-22T12:49:02;9.60;99.90
59556;DHT22;45374;52.746;6.304;2024-03-22T12:51:27;9.60;99.90
59556;DHT22;45374;52.746;6.304;2024-03-22T12:53:53;9.70;99.90
59556;DHT22;45374;52.746;6.304;2024-03-22T12:56:18;9.70;99.90
59556;DHT22;45374;52.746;6.304;2024-03-22T12:58:44;9.60;99.90
59556;DHT22;45374;52.746;6.304;2024-03-22T13:01:10;9.60;99.90
59556;DHT22;45374;52.746;6.304;2024-03-22T13:03:36;9.50;99.90
59556;DHT22;45374;52.746;6.304;2024-03-22T13:06:03;9.50;99.90
59556;DHT22;45374;52.746;6.304;2024-03-22T13:08:33;9.50;99.90
59556;DHT22;45374;52.746;6.304;2024-03-22T13:10:58;9.50;99.90
59556;DHT22;45374;52.746;6.304;2024-03-22T13:13:24;9.60;99.90
59556;DHT22;45374;52.746;6.304;2024-03-22T13:15:49;9.70;99.90
59556;DHT22;45374;52.746;6.304;2024-03-22T13:18:15;9.70;99.90
59556;DHT22;45374;52.746;6.304;2024-03-22T13:20:41;9.80;99.90
59556;DHT22;45374;52.746;6.304;2024-03-22T13:23:06;9.80;99.90
59556;DHT22;45374;52.746;6.304;2024-03-22T13:25:35;9.80;99.90
59556;DHT22;45374;52.746;6.304;2024-03-22T13:28:02;9.90;99.90
59556;DHT22;45374;52.746;6.304;2024-03-22T13:30:28;9.90;99.90
59556;DHT22;45374;52.746;6.304;2024-03-22T13:32:54;9.80;99.90
59556;DHT22;45374;52.746;6.304;2024-03-22T13:35:19;9.90;99.90
59556;DHT22;45374;52.746;6.304;2024-03-22T13:37:45;9.80;99.90
59556;DHT22;45374;52.746;6.304;2024-03-22T13:40:11;9.80;99.90
59556;DHT22;45374;52.746;6.304;2024-03-22T13:42:37;9.80;99.90
59556;DHT22;45374;52.746;6.304;2024-03-22T13:45:02;9.90;99.90
59556;DHT22;45374;52.746;6.304;2024-03-22T13:47:28;9.90;99.90
59556;DHT22;45374;52.746;6.304;2024-03-22T13:49:54;9.90;99.90
59556;DHT22;45374;52.746;6.304;2024-03-22T13:52:20;10.00;99.90
59556;DHT22;45374;52.746;6.304;2024-03-22T13:54:50;10.10;99.90
59556;DHT22;45374;52.746;6.304;2024-03-22T13:57:17;10.20;99.90
59556;DHT22;45374;52.746;6.304;2024-03-22T13:59:43;10.20;99.90
59556;DHT22;45374;52.746;6.304;2024-03-22T14:02:08;10.30;99.90
59556;DHT22;45374;52.746;6.304;2024-03-22T14:04:37;10.30;99.90
59556;DHT22;45374;52.746;6.304;2024-03-22T14:07:02;10.30;99.90
59556;DHT22;45374;52.746;6.304;2024-03-22T14:09:31;10.30;99.90
59556;DHT22;45374;52.746;6.304;2024-03-22T14:11:57;10.30;99.90
59556;DHT22;45374;52.746;6.304;2024-03-22T14:14:22;10.30;99.90
59556;DHT22;45374;52.746;6.304;2024-03-22T14:16:49;10.20;99.90
59556;DHT22;45374;52.746;6.304;2024-03-22T14:19:14;10.30;99.90
59556;DHT22;45374;52.746;6.304;2024-03-22T14:21:41;10.20;99.90
59556;DHT22;45374;52.746;6.304;2024-03-22T14:24:07;10.20;99.90
59556;DHT22;45374;52.746;6.304;2024-03-22T14:26:33;10.20;99.90
59556;DHT22;45374;52.746;6.304;2024-03-22T14:28:59;10.20;99.90
59556;DHT22;45374;52.746;6.304;2024-03-22T14:31:25;10.20;99.90
59556;DHT22;45374;52.746;6.304;2024-03-22T14:33:50;10.20;99.90
59556;DHT22;45374;52.746;6.304;2024-03-22T14:36:16;10.20;99.90
59556;DHT22;45374;52.746;6.304;2024-03-22T14:38:41;10.20;99.90
59556;DHT22;45374;52.746;6.304;2024-03-22T14:41:07;10.20;99.90
59556;DHT22;45374;52.746;6.304;2024-03-22T14:43:33;10.20;99.90
59556;DHT22;45374;52.746;6.304;2024-03-22T14:46:02;10.20;99.90
59556;DHT22;45374;52.746;6.304;2024-03-22T14:48:30;10.20;99.90
59556;DHT22;45374;52.746;6.304;2024-03-22T14:50:56;10.20;99.90
59556;DHT22;45374;52.746;6.304;2024-03-22T14:53:22;10.30;99.90
59556;DHT22;45374;52.746;6.304;2024-03-22T14:56:02;10.30;99.90
59556;DHT22;45374;52.746;6.304;2024-03-22T14:58:34;10.20;99.90
59556;DHT22;45374;52.746;6.304;2024-03-22T15:01:01;10.20;99.90
59556;DHT22;45374;52.746;6.304;2024-03-22T15:03:27;10.20;99.90
59556;DHT22;45374;52.746;6.304;2024-03-22T15:05:54;10.20;99.90
59556;DHT22;45374;52.746;6.304;2024-03-22T15:08:21;10.20;99.90
59556;DHT22;45374;52.746;6.304;2024-03-22T15:10:47;10.20;99.90
59556;DHT22;45374;52.746;6.304;2024-03-22T15:13:13;10.10;99.90
59556;DHT22;45374;52.746;6.304;2024-03-22T15:15:39;10.10;99.90
59556;DHT22;45374;52.746;6.304;2024-03-22T15:18:06;9.90;99.90
59556;DHT22;45374;52.746;6.304;2024-03-22T15:20:32;9.80;99.90
59556;DHT22;45374;52.746;6.304;2024-03-22T15:22:58;9.70;99.90
59556;DHT22;45374;52.746;6.304;2024-03-22T15:25:24;9.70;99.90